createdAt,value
2017-04-07T00:00:14.198Z,976.38
2017-04-07T00:01:24.452Z,976.34
2017-04-07T00:02:34.399Z,976.35
2017-04-07T00:03:44.660Z,976.32
2017-04-07T00:04:54.914Z,976.37
2017-04-07T00:06:05.173Z,976.4
2017-04-07T00:07:15.117Z,976.34
2017-04-07T00:08:25.057Z,976.35
2017-04-07T00:09:35.311Z,976.4
2017-04-07T00:10:45.575Z,976.41
2017-04-07T00:11:55.831Z,976.4
2017-04-07T00:13:05.493Z,976.44
2017-04-07T00:14:15.751Z,976.4
2017-04-07T00:15:26.012Z,976.42
2017-04-07T00:16:36.274Z,976.43
2017-04-07T00:17:46.528Z,976.42
2017-04-07T00:18:56.800Z,976.43
2017-04-07T00:20:06.744Z,976.42
2017-04-07T00:21:16.686Z,976.38
2017-04-07T00:22:26.942Z,976.42
2017-04-07T00:23:37.222Z,976.37
2017-04-07T00:24:47.479Z,976.39
2017-04-07T00:25:57.733Z,976.36
2017-04-07T00:27:07.676Z,976.38
2017-04-07T00:28:17.935Z,976.39
2017-04-07T00:29:28.190Z,976.41
2017-04-07T00:30:38.460Z,976.44
2017-04-07T00:31:48.718Z,976.4
2017-04-07T00:32:58.982Z,976.34
2017-04-07T00:34:09.241Z,976.36
2017-04-07T00:35:19.180Z,976.34
2017-04-07T00:36:29.437Z,976.36
2017-04-07T00:37:39.703Z,976.32
2017-04-07T00:38:49.962Z,976.36
2017-04-07T00:40:00.217Z,976.33
2017-04-07T00:41:10.481Z,976.35
2017-04-07T00:42:20.736Z,976.3
2017-04-07T00:43:30.993Z,976.38
2017-04-07T00:44:41.248Z,976.43
2017-04-07T00:45:51.506Z,976.36
2017-04-07T00:47:01.766Z,976.32
2017-04-07T00:48:12.022Z,976.28
2017-04-07T00:49:22.283Z,976.24
2017-04-07T00:50:32.543Z,976.22
2017-04-07T00:51:42.810Z,976.24
2017-04-07T00:52:53.063Z,976.23
2017-04-07T00:54:03.314Z,976.24
2017-04-07T00:55:13.252Z,976.21
2017-04-07T00:56:23.508Z,976.19
2017-04-07T00:57:33.765Z,976.22
2017-04-07T00:58:43.702Z,976.21
2017-04-07T00:59:53.951Z,976.24
2017-04-07T01:01:04.209Z,976.2
2017-04-07T01:02:14.470Z,976.23
2017-04-07T01:03:24.733Z,976.21
2017-04-07T01:04:34.989Z,976.29
2017-04-07T01:05:45.250Z,976.27
2017-04-07T01:06:55.517Z,976.28
2017-04-07T01:08:05.777Z,976.26
2017-04-07T01:09:16.038Z,976.27
2017-04-07T01:10:26.288Z,976.22
2017-04-07T01:11:36.226Z,976.23
2017-04-07T01:12:46.477Z,976.21
2017-04-07T01:13:56.731Z,976.18
2017-04-07T01:15:06.987Z,976.14
2017-04-07T01:16:17.245Z,976.17
2017-04-07T01:17:27.503Z,976.14
2017-04-07T01:18:37.758Z,976.13
2017-04-07T01:19:48.018Z,976.08
2017-04-07T01:20:58.270Z,976.02
2017-04-07T01:22:08.542Z,976.05
2017-04-07T01:23:18.798Z,976.08
2017-04-07T01:24:29.055Z,976.11
2017-04-07T01:25:39.004Z,976.14
2017-04-07T01:26:49.265Z,976.17
2017-04-07T01:27:59.529Z,976.17
2017-04-07T01:29:09.789Z,976.18
2017-04-07T01:30:20.044Z,976.2
2017-04-07T01:31:30.296Z,976.18
2017-04-07T01:32:40.553Z,976.2
2017-04-07T01:33:50.812Z,976.19
2017-04-07T01:35:01.062Z,976.17
2017-04-07T01:36:11.315Z,976.16
2017-04-07T01:37:21.577Z,976.1
2017-04-07T01:38:31.870Z,976.08
2017-04-07T01:39:42.132Z,976.14
2017-04-07T01:40:52.386Z,976.1
2017-04-07T01:42:02.641Z,976.05
2017-04-07T01:43:12.898Z,976.08
2017-04-07T01:44:23.154Z,976.07
2017-04-07T01:45:33.410Z,976.1
2017-04-07T01:50:34.825Z,976.07
2017-04-07T01:51:45.079Z,976.09
2017-04-07T01:52:55.340Z,976.12
2017-04-07T01:54:05.597Z,976.11
2017-04-07T01:55:15.850Z,976.09
2017-04-07T01:56:26.106Z,976.13
2017-04-07T01:57:36.367Z,976.14
2017-04-07T01:58:46.621Z,976.18
2017-04-07T01:59:56.570Z,976.25
2017-04-07T02:01:06.848Z,976.24
2017-04-07T02:02:17.106Z,976.23
2017-04-07T02:03:27.363Z,976.21
2017-04-07T02:04:37.302Z,976.21
2017-04-07T02:05:47.560Z,976.17
2017-04-07T02:06:57.816Z,976.23
2017-04-07T02:08:08.090Z,976.25
2017-04-07T02:09:18.033Z,976.28
2017-04-07T02:10:28.289Z,976.3
2017-04-07T02:11:38.553Z,976.3
2017-04-07T02:12:48.809Z,976.37
2017-04-07T02:13:59.063Z,976.35
2017-04-07T02:15:09.315Z,976.4
2017-04-07T02:16:19.563Z,976.39
2017-04-07T02:17:29.812Z,976.41
2017-04-07T02:18:40.063Z,976.32
2017-04-07T02:19:50.322Z,976.25
2017-04-07T02:21:00.261Z,976.29
2017-04-07T02:22:10.519Z,976.32
2017-04-07T02:23:20.467Z,976.34
2017-04-07T02:24:30.726Z,976.29
2017-04-07T02:25:40.977Z,976.29
2017-04-07T02:26:51.230Z,976.32
2017-04-07T02:28:01.486Z,976.31
2017-04-07T02:29:11.742Z,976.35
2017-04-07T02:30:21.684Z,976.31
2017-04-07T02:31:31.313Z,976.29
2017-04-07T02:32:41.259Z,976.35
2017-04-07T02:33:51.207Z,976.32
2017-04-07T02:35:01.467Z,976.35
2017-04-07T02:36:11.721Z,976.33
2017-04-07T02:37:21.679Z,976.36
2017-04-07T02:38:31.937Z,976.36
2017-04-07T02:39:41.878Z,976.33
2017-04-07T02:40:51.824Z,976.37
2017-04-07T02:42:02.089Z,976.34
2017-04-07T02:43:12.339Z,976.36
2017-04-07T02:44:22.592Z,976.32
2017-04-07T02:45:32.529Z,976.33
2017-04-07T02:46:42.783Z,976.38
2017-04-07T02:47:53.043Z,976.37
2017-04-07T02:49:03.292Z,976.39
2017-04-07T02:50:13.549Z,976.36
2017-04-07T02:51:23.812Z,976.29
2017-04-07T02:52:34.072Z,976.35
2017-04-07T02:53:44.330Z,976.32
2017-04-07T02:54:54.589Z,976.35
2017-04-07T02:56:04.845Z,976.37
2017-04-07T02:57:15.103Z,976.37
2017-04-07T02:58:25.369Z,976.4
2017-04-07T02:59:35.623Z,976.35
2017-04-07T03:00:45.883Z,976.36
2017-04-07T03:01:56.132Z,976.38
2017-04-07T03:03:06.383Z,976.39
2017-04-07T03:04:16.648Z,976.43
2017-04-07T03:05:26.906Z,976.42
2017-04-07T03:06:36.847Z,976.37
2017-04-07T03:07:47.101Z,976.39
2017-04-07T03:08:57.350Z,976.41
2017-04-07T03:10:07.605Z,976.42
2017-04-07T03:11:17.858Z,976.39
2017-04-07T03:12:28.121Z,976.42
2017-04-07T03:13:38.368Z,976.46
2017-04-07T03:14:48.628Z,976.54
2017-04-07T03:15:58.286Z,976.51
2017-04-07T03:17:08.232Z,976.5
2017-04-07T03:18:18.488Z,976.46
2017-04-07T03:19:28.764Z,976.49
2017-04-07T03:20:39.027Z,976.53
2017-04-07T03:21:49.285Z,976.53
2017-04-07T03:22:59.534Z,976.53
2017-04-07T03:24:09.475Z,976.54
2017-04-07T03:25:19.726Z,976.57
2017-04-07T03:26:29.990Z,976.57
2017-04-07T03:27:39.932Z,976.61
2017-04-07T03:28:50.178Z,976.63
2017-04-07T03:30:00.438Z,976.68
2017-04-07T03:31:10.383Z,976.63
2017-04-07T03:32:20.639Z,976.66
2017-04-07T03:33:30.896Z,976.71
2017-04-07T03:34:40.529Z,976.67
2017-04-07T03:35:50.787Z,976.71
2017-04-07T03:37:01.046Z,976.66
2017-04-07T03:38:10.683Z,976.72
2017-04-07T03:39:20.935Z,976.73
2017-04-07T03:40:31.191Z,976.76
2017-04-07T03:41:41.131Z,976.79
2017-04-07T03:42:51.389Z,976.77
2017-04-07T03:44:01.648Z,976.79
2017-04-07T03:45:11.585Z,976.79
2017-04-07T03:46:21.842Z,976.8
2017-04-07T03:47:32.097Z,976.81
2017-04-07T03:48:42.354Z,976.89
2017-04-07T03:49:52.618Z,976.89
2017-04-07T03:51:02.871Z,976.93
2017-04-07T03:52:13.129Z,976.84
2017-04-07T03:53:23.387Z,976.86
2017-04-07T03:54:33.640Z,976.92
2017-04-07T03:55:43.896Z,976.94
2017-04-07T03:56:54.151Z,976.92
2017-04-07T03:58:04.401Z,976.89
2017-04-07T03:59:14.653Z,976.9
2017-04-07T04:00:24.911Z,976.99
2017-04-07T04:01:35.161Z,977
2017-04-07T04:02:45.424Z,977.04
2017-04-07T04:03:55.685Z,977.05
2017-04-07T04:05:05.954Z,977.05
2017-04-07T04:06:16.216Z,977
2017-04-07T04:07:26.500Z,977.03
2017-04-07T04:08:36.753Z,977.06
2017-04-07T04:09:46.377Z,977.06
2017-04-07T04:10:56.631Z,977.11
2017-04-07T04:12:06.886Z,977.09
2017-04-07T04:13:17.146Z,977.15
2017-04-07T04:14:27.088Z,977.11
2017-04-07T04:15:37.033Z,977.12
2017-04-07T04:16:47.312Z,977.16
2017-04-07T04:17:57.572Z,977.24
2017-04-07T04:19:07.834Z,977.19
2017-04-07T04:20:18.088Z,977.17
2017-04-07T04:21:28.345Z,977.14
2017-04-07T04:22:38.606Z,977.21
2017-04-07T04:23:48.857Z,977.25
2017-04-07T04:24:59.113Z,977.24
2017-04-07T04:26:09.371Z,977.21
2017-04-07T04:27:19.633Z,977.21
2017-04-07T04:28:29.885Z,977.23
2017-04-07T04:29:40.138Z,977.25
2017-04-07T04:30:50.394Z,977.26
2017-04-07T04:32:00.336Z,977.26
2017-04-07T04:33:10.594Z,977.28
2017-04-07T04:34:20.531Z,977.28
2017-04-07T04:35:30.796Z,977.28
2017-04-07T04:36:41.061Z,977.28
2017-04-07T04:37:51.318Z,977.3
2017-04-07T04:39:01.577Z,977.31
2017-04-07T04:40:11.832Z,977.28
2017-04-07T04:41:21.774Z,977.24
2017-04-07T04:42:32.025Z,977.27
2017-04-07T04:43:41.649Z,977.21
2017-04-07T04:44:51.593Z,977.18
2017-04-07T04:46:01.850Z,977.16
2017-04-07T04:47:11.787Z,977.18
2017-04-07T04:48:22.048Z,977.17
2017-04-07T04:49:32.299Z,977.27
2017-04-07T04:50:42.547Z,977.36
2017-04-07T04:51:52.805Z,977.41
2017-04-07T04:53:03.060Z,977.48
2017-04-07T04:54:13.312Z,977.54
2017-04-07T04:55:23.250Z,977.56
2017-04-07T04:56:33.185Z,977.59
2017-04-07T04:57:43.432Z,977.6
2017-04-07T04:58:53.690Z,977.57
2017-04-07T05:00:03.942Z,977.52
2017-04-07T05:01:13.885Z,977.52
2017-04-07T05:02:24.166Z,977.52
2017-04-07T05:03:34.420Z,977.54
2017-04-07T05:04:44.674Z,977.5
2017-04-07T05:05:54.929Z,977.52
2017-04-07T05:07:05.191Z,977.54
2017-04-07T05:08:15.444Z,977.54
2017-04-07T05:09:25.697Z,977.57
2017-04-07T05:10:35.956Z,977.53
2017-04-07T05:11:45.894Z,977.48
2017-04-07T05:12:56.160Z,977.55
2017-04-07T05:14:06.406Z,977.67
2017-04-07T05:15:16.658Z,977.66
2017-04-07T05:16:26.922Z,977.58
2017-04-07T05:17:36.863Z,977.48
2017-04-07T05:18:46.795Z,977.54
2017-04-07T05:19:57.048Z,977.49
2017-04-07T05:21:07.300Z,977.5
2017-04-07T05:22:17.552Z,977.49
2017-04-07T05:23:27.811Z,977.61
2017-04-07T05:24:38.066Z,977.72
2017-04-07T05:25:48.316Z,977.71
2017-04-07T05:26:58.570Z,977.68
2017-04-07T05:28:08.511Z,977.8
2017-04-07T05:29:18.765Z,977.9
2017-04-07T05:30:28.704Z,977.81
2017-04-07T05:31:38.964Z,977.59
2017-04-07T05:32:49.226Z,977.59
2017-04-07T05:33:59.477Z,977.89
2017-04-07T05:35:09.731Z,977.96
2017-04-07T05:36:19.992Z,977.93
2017-04-07T05:37:29.926Z,977.64
2017-04-07T05:38:40.207Z,977.56
2017-04-07T05:39:50.462Z,977.79
2017-04-07T05:41:00.717Z,977.88
2017-04-07T05:42:10.971Z,977.92
2017-04-07T05:43:21.221Z,977.82
2017-04-07T05:44:31.478Z,977.76
2017-04-07T05:45:41.735Z,977.74
2017-04-07T05:46:52.002Z,977.8
2017-04-07T05:48:02.258Z,977.92
2017-04-07T05:49:12.197Z,977.97
2017-04-07T05:50:22.458Z,978.06
2017-04-07T05:51:32.712Z,977.97
2017-04-07T05:52:42.969Z,977.93
2017-04-07T05:53:52.917Z,977.91
2017-04-07T05:55:03.177Z,977.95
2017-04-07T05:56:13.143Z,978.06
2017-04-07T05:57:23.089Z,977.95
2017-04-07T05:58:33.340Z,977.79
2017-04-07T05:59:43.277Z,977.85
2017-04-07T06:00:53.229Z,977.94
2017-04-07T06:02:03.530Z,978.01
2017-04-07T06:03:13.477Z,978.05
2017-04-07T06:04:23.741Z,978.02
2017-04-07T06:05:34.018Z,978.07
2017-04-07T06:06:43.960Z,978.15
2017-04-07T06:07:54.222Z,978.13
2017-04-07T06:09:04.478Z,978.13
2017-04-07T06:10:14.731Z,978.06
2017-04-07T06:11:24.987Z,978.13
2017-04-07T06:12:35.249Z,978.16
2017-04-07T06:13:45.502Z,978.27
2017-04-07T06:14:55.762Z,978.3
2017-04-07T06:16:06.021Z,978.38
2017-04-07T06:17:15.966Z,978.27
2017-04-07T06:18:26.219Z,978.26
2017-04-07T06:19:36.158Z,978.3
2017-04-07T06:20:46.412Z,978.28
2017-04-07T06:21:56.662Z,978.35
2017-04-07T06:23:06.920Z,978.37
2017-04-07T06:24:17.206Z,978.3
2017-04-07T06:25:27.456Z,978.33
2017-04-07T06:26:37.398Z,978.41
2017-04-07T06:27:47.683Z,978.49
2017-04-07T06:28:57.944Z,978.46
2017-04-07T06:30:08.199Z,978.52
2017-04-07T06:31:18.458Z,978.57
2017-04-07T06:32:28.440Z,978.45
2017-04-07T06:33:38.066Z,978.47
2017-04-07T06:34:48.317Z,978.49
2017-04-07T06:35:58.573Z,978.45
2017-04-07T06:37:08.833Z,978.44
2017-04-07T06:38:19.093Z,978.44
2017-04-07T06:39:29.352Z,978.46
2017-04-07T06:40:39.602Z,978.45
2017-04-07T06:41:49.864Z,978.46
2017-04-07T06:43:00.129Z,978.55
2017-04-07T06:44:10.390Z,978.65
2017-04-07T06:45:20.653Z,978.64
2017-04-07T06:46:30.911Z,978.62
2017-04-07T06:47:40.848Z,978.61
2017-04-07T06:48:51.251Z,978.65
2017-04-07T06:50:01.514Z,978.6
2017-04-07T06:51:11.798Z,978.62
2017-04-07T06:52:22.057Z,978.69
2017-04-07T06:53:32.309Z,978.71
2017-04-07T06:54:42.251Z,978.68
2017-04-07T06:55:52.504Z,978.77
2017-04-07T06:57:02.762Z,978.71
2017-04-07T06:58:13.020Z,978.73
2017-04-07T06:59:22.992Z,978.64
2017-04-07T07:00:33.251Z,978.57
2017-04-07T07:01:43.507Z,978.63
2017-04-07T07:02:53.765Z,978.82
2017-04-07T07:04:04.019Z,978.82
2017-04-07T07:05:14.278Z,978.64
2017-04-07T07:06:24.547Z,978.61
2017-04-07T07:07:34.809Z,978.64
2017-04-07T07:08:45.065Z,978.62
2017-04-07T07:09:55.321Z,978.55
2017-04-07T07:11:05.272Z,978.57
2017-04-07T07:12:15.216Z,978.59
2017-04-07T07:13:25.470Z,978.79
2017-04-07T07:14:35.728Z,978.72
2017-04-07T07:15:45.680Z,978.67
2017-04-07T07:16:55.936Z,978.65
2017-04-07T07:18:05.923Z,978.71
2017-04-07T07:19:16.202Z,978.83
2017-04-07T07:20:26.455Z,978.99
2017-04-07T07:21:36.757Z,978.9
2017-04-07T07:22:47.021Z,978.75
2017-04-07T07:23:57.281Z,978.8
2017-04-07T07:25:07.577Z,978.89
2017-04-07T07:26:17.844Z,978.96
2017-04-07T07:27:28.104Z,979.06
2017-04-07T07:28:38.048Z,978.95
2017-04-07T07:29:48.312Z,978.9
2017-04-07T07:30:58.256Z,978.92
2017-04-07T07:32:08.550Z,978.95
2017-04-07T07:33:18.810Z,979.08
2017-04-07T07:34:29.069Z,979.04
2017-04-07T07:35:39.336Z,979.03
2017-04-07T07:36:49.610Z,979.02
2017-04-07T07:37:59.866Z,979.01
2017-04-07T07:39:10.121Z,979.07
2017-04-07T07:40:20.372Z,979.09
2017-04-07T07:41:30.630Z,979.07
2017-04-07T07:42:40.576Z,979.03
2017-04-07T07:43:50.521Z,979.09
2017-04-07T07:45:00.464Z,979.12
2017-04-07T07:46:10.729Z,979.06
2017-04-07T07:47:20.990Z,979.07
2017-04-07T07:48:30.933Z,979.12
2017-04-07T07:49:41.191Z,979.09
2017-04-07T07:50:51.446Z,979.09
2017-04-07T07:52:01.708Z,979.12
2017-04-07T07:53:11.967Z,979.12
2017-04-07T07:54:21.910Z,979.13
2017-04-07T07:55:31.846Z,979.11
2017-04-07T07:56:42.101Z,979.13
2017-04-07T07:57:52.355Z,979.11
2017-04-07T07:59:02.552Z,979.16
2017-04-07T08:00:12.809Z,979.25
2017-04-07T08:01:23.059Z,979.32
2017-04-07T08:02:33.008Z,979.35
2017-04-07T08:03:43.270Z,979.28
2017-04-07T08:04:53.531Z,979.27
2017-04-07T08:06:03.795Z,979.35
2017-04-07T08:07:13.744Z,979.5
2017-04-07T08:08:24.007Z,979.49
2017-04-07T08:09:34.292Z,979.44
2017-04-07T08:10:44.544Z,979.35
2017-04-07T08:11:54.803Z,979.36
2017-04-07T08:13:05.063Z,979.5
2017-04-07T08:14:15.326Z,979.52
2017-04-07T08:15:25.583Z,979.41
2017-04-07T08:16:35.838Z,979.38
2017-04-07T08:17:45.806Z,979.35
2017-04-07T08:18:56.064Z,979.39
2017-04-07T08:20:06.326Z,979.38
2017-04-07T08:21:16.593Z,979.45
2017-04-07T08:22:28.854Z,979.43
2017-04-07T08:23:39.112Z,979.49
2017-04-07T08:24:49.365Z,979.48
2017-04-07T08:25:59.621Z,979.47
2017-04-07T08:27:09.881Z,979.47
2017-04-07T08:28:20.140Z,979.51
2017-04-07T08:29:30.403Z,979.53
2017-04-07T08:30:40.740Z,979.56
2017-04-07T08:31:51.003Z,979.64
2017-04-07T08:33:01.295Z,979.67
2017-04-07T08:34:11.558Z,979.67
2017-04-07T08:35:21.816Z,979.71
2017-04-07T08:36:32.068Z,979.72
2017-04-07T08:37:42.333Z,979.67
2017-04-07T08:38:52.601Z,979.68
2017-04-07T08:40:02.549Z,979.74
2017-04-07T08:41:12.811Z,979.71
2017-04-07T08:42:22.754Z,979.75
2017-04-07T08:43:33.016Z,979.74
2017-04-07T08:44:43.271Z,979.7
2017-04-07T08:45:53.536Z,979.76
2017-04-07T08:47:03.788Z,979.82
2017-04-07T08:48:14.070Z,979.84
2017-04-07T08:49:24.334Z,979.78
2017-04-07T08:50:34.595Z,979.76
2017-04-07T08:51:44.229Z,979.76
2017-04-07T08:52:54.517Z,979.76
2017-04-07T08:54:04.774Z,979.83
2017-04-07T08:55:15.040Z,979.86
2017-04-07T08:56:25.305Z,979.85
2017-04-07T08:57:35.565Z,979.9
2017-04-07T08:58:45.508Z,979.78
2017-04-07T08:59:55.770Z,979.84
2017-04-07T09:01:06.054Z,979.83
2017-04-07T09:02:15.697Z,979.84
2017-04-07T09:03:25.959Z,979.83
2017-04-07T09:04:36.216Z,979.88
2017-04-07T09:05:46.159Z,979.79
2017-04-07T09:06:56.422Z,979.81
2017-04-07T09:08:06.681Z,979.82
2017-04-07T09:09:16.316Z,979.83
2017-04-07T09:10:26.571Z,979.86
2017-04-07T09:11:36.830Z,979.83
2017-04-07T09:12:47.102Z,979.82
2017-04-07T09:13:57.365Z,979.8
2017-04-07T09:15:07.627Z,979.86
2017-04-07T09:16:17.882Z,979.84
2017-04-07T09:17:27.837Z,979.81
2017-04-07T09:18:38.099Z,979.84
2017-04-07T09:19:48.377Z,979.87
2017-04-07T09:20:58.636Z,979.88
2017-04-07T09:22:08.897Z,979.88
2017-04-07T09:23:18.848Z,979.85
2017-04-07T09:24:28.794Z,979.86
2017-04-07T09:25:38.740Z,979.86
2017-04-07T09:26:49.006Z,979.85
2017-04-07T09:27:59.270Z,979.85
2017-04-07T09:29:09.531Z,979.83
2017-04-07T09:30:19.477Z,979.82
2017-04-07T09:31:29.739Z,979.82
2017-04-07T09:32:40.002Z,979.8
2017-04-07T09:33:50.319Z,979.87
2017-04-07T09:35:00.264Z,979.88
2017-04-07T09:36:10.530Z,979.93
2017-04-07T09:37:20.515Z,979.97
2017-04-07T09:38:30.784Z,979.99
2017-04-07T09:39:40.727Z,979.99
2017-04-07T09:40:50.677Z,980.02
2017-04-07T09:42:00.961Z,980.02
2017-04-07T09:43:11.240Z,980.05
2017-04-07T09:44:21.501Z,980.09
2017-04-07T09:45:31.755Z,980.03
2017-04-07T09:46:41.698Z,980.06
2017-04-07T09:47:51.652Z,980.08
2017-04-07T09:49:01.925Z,980.08
2017-04-07T09:50:12.193Z,980.12
2017-04-07T09:51:22.451Z,980.14
2017-04-07T09:52:32.719Z,980.16
2017-04-07T09:53:42.664Z,980.17
2017-04-07T09:54:52.926Z,980.17
2017-04-07T09:56:02.874Z,980.15
2017-04-07T09:57:12.821Z,980.18
2017-04-07T09:58:22.764Z,980.23
2017-04-07T09:59:33.025Z,980.22
2017-04-07T10:00:42.974Z,980.24
2017-04-07T10:01:53.237Z,980.25
2017-04-07T10:03:03.518Z,980.22
2017-04-07T10:04:13.472Z,980.26
2017-04-07T10:05:23.735Z,980.27
2017-04-07T10:06:33.994Z,980.28
2017-04-07T10:07:43.941Z,980.26
2017-04-07T10:08:54.206Z,980.32
2017-04-07T10:10:04.466Z,980.34
2017-04-07T10:11:14.731Z,980.32
2017-04-07T10:12:24.998Z,980.33
2017-04-07T10:13:35.263Z,980.36
2017-04-07T10:14:45.524Z,980.33
2017-04-07T10:15:55.793Z,980.34
2017-04-07T10:17:05.749Z,980.34
2017-04-07T10:18:15.702Z,980.32
2017-04-07T10:19:25.963Z,980.34
2017-04-07T10:20:35.910Z,980.36
2017-04-07T10:21:46.173Z,980.36
2017-04-07T10:22:56.440Z,980.39
2017-04-07T10:24:06.705Z,980.33
2017-04-07T10:25:18.658Z,980.3
2017-04-07T10:26:28.924Z,980.36
2017-04-07T10:27:39.187Z,980.38
2017-04-07T10:28:49.450Z,980.38
2017-04-07T10:29:59.715Z,980.31
2017-04-07T10:31:12.143Z,980.35
2017-04-07T10:32:22.093Z,980.35
2017-04-07T10:33:32.353Z,980.36
2017-04-07T10:34:42.617Z,980.38
2017-04-07T10:35:52.881Z,980.38
2017-04-07T10:37:02.837Z,980.34
2017-04-07T10:38:12.799Z,980.31
2017-04-07T10:39:23.060Z,980.3
2017-04-07T10:40:33.007Z,980.23
2017-04-07T10:41:43.277Z,980.26
2017-04-07T10:42:53.226Z,980.33
2017-04-07T10:44:03.507Z,980.3
2017-04-07T10:45:13.769Z,980.29
2017-04-07T10:46:23.721Z,980.37
2017-04-07T10:47:33.984Z,980.32
2017-04-07T10:48:44.280Z,980.35
2017-04-07T10:49:54.549Z,980.39
2017-04-07T10:51:04.814Z,980.46
2017-04-07T10:52:14.769Z,980.38
2017-04-07T10:53:25.041Z,980.4
2017-04-07T10:54:35.312Z,980.47
2017-04-07T10:55:44.946Z,980.39
2017-04-07T10:56:55.211Z,980.42
2017-04-07T10:58:05.479Z,980.43
2017-04-07T10:59:15.114Z,980.44
2017-04-07T11:00:25.066Z,980.45
2017-04-07T11:01:35.346Z,980.52
2017-04-07T11:02:45.611Z,980.56
2017-04-07T11:03:55.561Z,980.57
2017-04-07T11:05:05.821Z,980.61
2017-04-07T11:06:16.088Z,980.6
2017-04-07T11:07:26.037Z,980.49
2017-04-07T11:08:36.304Z,980.55
2017-04-07T11:09:46.571Z,980.51
2017-04-07T11:10:56.837Z,980.59
2017-04-07T11:12:07.103Z,980.7
2017-04-07T11:13:17.367Z,980.69
2017-04-07T11:14:27.307Z,980.73
2017-04-07T11:15:37.578Z,980.74
2017-04-07T11:16:47.534Z,980.75
2017-04-07T11:17:57.482Z,980.97
2017-04-07T11:19:07.447Z,981.09
2017-04-07T11:20:17.749Z,981.19
2017-04-07T11:21:28.015Z,981.18
2017-04-07T11:22:38.277Z,981.16
2017-04-07T11:23:48.546Z,980.98
2017-04-07T11:24:58.817Z,981.16
2017-04-07T11:26:09.101Z,981.05
2017-04-07T11:27:19.386Z,980.98
2017-04-07T11:28:29.656Z,981.03
2017-04-07T11:29:39.930Z,981.04
2017-04-07T11:30:49.884Z,981.02
2017-04-07T11:32:00.158Z,980.94
2017-04-07T11:33:10.118Z,981.01
2017-04-07T11:34:20.080Z,981.03
2017-04-07T11:35:30.358Z,981.09
2017-04-07T11:36:40.634Z,981.15
2017-04-07T11:37:50.915Z,981.16
2017-04-07T11:39:01.190Z,981.24
2017-04-07T11:40:11.466Z,981.24
2017-04-07T11:41:21.428Z,980.84
2017-04-07T11:42:31.074Z,980.89
2017-04-07T11:43:41.348Z,981.29
2017-04-07T11:44:51.640Z,981.33
2017-04-07T11:46:01.914Z,981.37
2017-04-07T11:47:12.202Z,981.33
2017-04-07T11:48:22.161Z,981.35
2017-04-07T11:49:32.471Z,981.35
2017-04-07T11:50:42.749Z,981.45
2017-04-07T11:51:52.707Z,980.9
2017-04-07T11:53:02.873Z,981.43
2017-04-07T11:54:13.150Z,981.3
2017-04-07T11:55:23.143Z,981.11
2017-04-07T11:56:33.108Z,981.4
2017-04-07T11:57:43.388Z,981.39
2017-04-07T11:58:53.349Z,981.41
2017-04-07T12:00:02.999Z,981.38
2017-04-07T12:01:13.286Z,981.37
2017-04-07T12:02:23.571Z,981.39
2017-04-07T12:03:33.856Z,981.45
2017-04-07T12:04:43.818Z,981.55
2017-04-07T12:05:53.784Z,981.56
2017-04-07T12:07:04.082Z,981.78
2017-04-07T12:08:14.371Z,981.78
2017-04-07T12:09:24.656Z,981.92
2017-04-07T12:10:34.991Z,982.03
2017-04-07T12:11:44.956Z,982.02
2017-04-07T12:12:55.234Z,982.05
2017-04-07T12:14:05.205Z,982.07
2017-04-07T12:15:15.478Z,982.12
2017-04-07T12:16:25.758Z,981.95
2017-04-07T12:17:35.724Z,981.99
2017-04-07T12:18:45.718Z,982.12
2017-04-07T12:19:56.006Z,982.17
2017-04-07T12:21:06.292Z,982.14
2017-04-07T12:22:16.256Z,982.01
2017-04-07T12:23:26.540Z,982
2017-04-07T12:24:36.830Z,982.04
2017-04-07T12:25:46.803Z,982.06
2017-04-07T12:26:57.076Z,982.12
2017-04-07T12:28:07.362Z,982.15
2017-04-07T12:29:17.338Z,981.17
2017-04-07T12:30:27.621Z,981.89
2017-04-07T12:31:37.898Z,982.17
2017-04-07T12:32:47.860Z,981.88
2017-04-07T12:33:57.511Z,981.03
2017-04-07T12:35:07.800Z,981.99
2017-04-07T12:36:17.764Z,982.36
2017-04-07T12:37:27.766Z,981.62
2017-04-07T12:38:38.051Z,981.49
2017-04-07T12:39:48.336Z,981.01
2017-04-07T12:40:58.618Z,981.08
2017-04-07T12:42:08.908Z,981.26
2017-04-07T12:43:18.877Z,981.28
2017-04-07T12:44:28.855Z,981.1
2017-04-07T12:45:38.824Z,982.13
2017-04-07T12:46:49.099Z,982.54
2017-04-07T12:47:59.379Z,981.46
2017-04-07T12:49:09.653Z,982.22
2017-04-07T12:50:19.620Z,982.12
2017-04-07T12:51:29.585Z,981.47
2017-04-07T12:52:39.866Z,981.56
2017-04-07T12:53:50.145Z,981.92
2017-04-07T12:55:00.422Z,982.9
2017-04-07T12:56:10.697Z,981.73
2017-04-07T12:57:20.985Z,982.62
2017-04-07T12:58:31.259Z,982.12
2017-04-07T12:59:41.224Z,982.52
2017-04-07T13:00:51.187Z,981.22
2017-04-07T13:02:01.155Z,981.48
2017-04-07T13:03:11.429Z,981.3
2017-04-07T13:04:21.710Z,981.74
2017-04-07T13:05:31.991Z,981.37
2017-04-07T13:06:42.276Z,981.28
2017-04-07T13:07:52.561Z,981.19
2017-04-07T13:09:02.853Z,981.28
2017-04-07T13:10:13.206Z,981.4
2017-04-07T13:11:23.174Z,981.38
2017-04-07T13:12:33.455Z,981.77
2017-04-07T13:13:43.735Z,982.44
2017-04-07T13:14:53.700Z,982.62
2017-04-07T13:16:03.668Z,982.24
2017-04-07T13:17:13.949Z,982.44
2017-04-07T13:18:24.256Z,982.33
2017-04-07T13:19:34.531Z,981.95
2017-04-07T13:20:44.806Z,982.95
2017-04-07T13:21:55.084Z,982.34
2017-04-07T13:23:05.053Z,981.43
2017-04-07T13:24:15.020Z,981.56
2017-04-07T13:25:24.987Z,982.1
2017-04-07T13:26:35.277Z,982.19
2017-04-07T13:27:45.244Z,982.02
2017-04-07T13:28:55.536Z,981.32
2017-04-07T13:30:05.807Z,981.36
2017-04-07T13:31:16.100Z,981.26
2017-04-07T13:32:25.762Z,981.46
2017-04-07T13:33:36.040Z,982.13
2017-04-07T13:34:46.324Z,981.5
2017-04-07T13:35:56.607Z,981.61
2017-04-07T13:37:06.888Z,981.67
2017-04-07T13:38:17.170Z,982.38
2017-04-07T13:39:27.456Z,981.63
2017-04-07T13:40:37.733Z,981.86
2017-04-07T13:41:48.005Z,982.25
2017-04-07T13:42:58.282Z,983.05
2017-04-07T13:44:08.244Z,982.85
2017-04-07T13:45:18.527Z,981.79
2017-04-07T13:46:28.800Z,982.81
2017-04-07T13:47:39.075Z,981.38
2017-04-07T13:48:49.380Z,981.56
2017-04-07T13:49:59.345Z,982.43
2017-04-07T13:51:09.630Z,981.82
2017-04-07T13:52:19.905Z,982.95
2017-04-07T13:53:30.178Z,981.95
2017-04-07T13:54:40.136Z,982.05
2017-04-07T13:55:50.098Z,981.75
2017-04-07T13:57:00.094Z,982.35
2017-04-07T13:58:10.372Z,981.72
2017-04-07T13:59:20.651Z,981.56
2017-04-07T14:00:30.922Z,982.04
2017-04-07T14:01:41.208Z,981.56
2017-04-07T14:02:51.485Z,981.51
2017-04-07T14:04:01.764Z,981.5
2017-04-07T14:05:12.040Z,981.52
2017-04-07T14:06:22.321Z,981.58
2017-04-07T14:07:32.602Z,981.65
2017-04-07T14:08:42.884Z,981.63
2017-04-07T14:09:53.166Z,981.74
2017-04-07T14:11:03.446Z,982.26
2017-04-07T14:12:13.721Z,981.95
2017-04-07T14:13:23.992Z,981.86
2017-04-07T14:14:34.271Z,982.11
2017-04-07T14:15:44.554Z,981.66
2017-04-07T14:16:54.833Z,981.57
2017-04-07T14:18:04.794Z,982.1
2017-04-07T14:19:14.757Z,981.62
2017-04-07T14:20:25.033Z,981.59
2017-04-07T14:21:34.999Z,982.12
2017-04-07T14:22:45.274Z,982.97
2017-04-07T14:23:55.547Z,982.91
2017-04-07T14:25:05.817Z,981.82
2017-04-07T14:26:16.095Z,981.83
2017-04-07T14:27:26.068Z,982.62
2017-04-07T14:28:36.341Z,981.89
2017-04-07T14:29:46.620Z,981.82
2017-04-07T14:30:56.894Z,981.5
2017-04-07T14:32:07.170Z,981.58
2017-04-07T14:33:17.455Z,981.67
2017-04-07T14:34:27.738Z,981.54
2017-04-07T14:35:38.019Z,981.56
2017-04-07T14:36:48.296Z,981.66
2017-04-07T14:37:58.579Z,981.56
2017-04-07T14:39:08.545Z,981.63
2017-04-07T14:40:18.817Z,981.66
2017-04-07T14:41:29.082Z,981.68